Time;durP1;ratioP1;P1;durP2;ratioP2;P2;SDS_P1;SDS_P2;PMS_P1;PMS_P2;Temp;Humidity;BMP_temperature;BMP_pressure;BME280_temperature;BME280_humidity;BME280_pressure;Samples;Min_cycle;Max_cycle;Signal;HPM_P1;HPM_P2
2023/03/07 00:00:04;;;;;;;2.80;2.60;;;15.50;57.50;16.50;99198.00;;;;5029046;28;20179;-45
2023/03/07 00:02:30;;;;;;;2.93;2.73;;;15.50;57.50;16.50;99185.00;;;;5029172;28;20182;-45
2023/03/07 00:04:56;;;;;;;3.67;2.60;;;15.50;57.50;16.50;99188.00;;;;5029120;28;20289;-44
2023/03/07 00:07:21;;;;;;;3.30;3.00;;;15.50;57.50;16.50;99194.00;;;;5029122;28;20191;-45
2023/03/07 00:09:47;;;;;;;2.90;2.63;;;15.50;57.40;16.50;99187.00;;;;5028845;28;20229;-44
2023/03/07 00:12:13;;;;;;;2.60;2.40;;;15.50;57.40;16.50;99196.00;;;;5028843;28;20826;-46
2023/03/07 00:14:38;;;;;;;2.63;2.43;;;15.50;57.50;16.50;99192.00;;;;5028811;28;20622;-44
2023/03/07 00:17:04;;;;;;;2.60;2.40;;;15.50;57.40;16.50;99186.00;;;;5028760;28;20195;-45
2023/03/07 00:19:30;;;;;;;2.90;2.70;;;15.50;57.50;16.40;99185.00;;;;5028785;28;20239;-45
2023/03/07 00:21:56;;;;;;;2.77;2.57;;;15.50;57.50;16.40;99183.00;;;;5028716;28;20175;-45
2023/03/07 00:24:21;;;;;;;2.60;2.40;;;15.40;57.30;16.40;99195.00;;;;5028862;28;20778;-44
2023/03/07 00:26:47;;;;;;;2.80;2.60;;;15.40;57.30;16.40;99181.00;;;;5028828;28;20233;-44
2023/03/07 00:29:13;;;;;;;2.73;2.50;;;15.40;57.30;16.40;99171.00;;;;5028883;28;20178;-44
2023/03/07 00:31:38;;;;;;;2.70;2.50;;;15.40;57.30;16.40;99118.00;;;;5028350;28;20210;-45
2023/03/07 00:34:04;;;;;;;2.80;2.60;;;15.40;57.30;16.40;99182.00;;;;5028432;28;20167;-45
2023/03/07 00:36:30;;;;;;;2.70;2.50;;;15.40;57.30;16.40;99175.00;;;;5028773;28;20202;-46
2023/03/07 00:38:56;;;;;;;2.40;2.20;;;15.40;57.30;16.30;99174.00;;;;5028915;28;20179;-44
2023/03/07 00:41:24;;;;;;;2.60;2.40;;;15.30;57.20;16.30;99181.00;;;;5031583;28;20250;-44
2023/03/07 00:43:50;;;;;;;2.80;2.60;;;15.30;57.40;16.30;99163.00;;;;5032892;28;20175;-45
2023/03/07 00:46:17;;;;;;;2.40;2.20;;;15.30;57.40;16.30;99162.00;;;;5033628;28;20198;-45
2023/03/07 00:48:43;;;;;;;2.50;2.30;;;15.20;57.40;16.30;99167.00;;;;5028560;28;20190;-44
2023/03/07 00:51:10;;;;;;;2.70;2.50;;;15.20;57.40;16.30;99167.00;;;;5028249;28;20294;-45
2023/03/07 00:53:36;;;;;;;2.80;2.60;;;15.20;57.50;16.30;99168.00;;;;5028029;28;20175;-44
2023/03/07 00:56:05;;;;;;;2.60;2.40;;;15.20;57.40;16.30;99146.00;;;;5028128;28;20221;-44
2023/03/07 00:58:33;;;;;;;2.50;2.30;;;15.20;57.40;16.20;99161.00;;;;5028080;28;20183;-45
2023/03/07 01:00:59;;;;;;;2.43;2.23;;;15.20;57.40;16.20;99160.00;;;;5027675;28;20183;-46
2023/03/07 01:03:25;;;;;;;2.47;2.27;;;15.20;57.40;16.20;99140.00;;;;5028094;28;20218;-46
2023/03/07 01:05:50;;;;;;;2.50;2.30;;;15.20;57.50;16.20;99145.00;;;;5027799;28;20190;-44
2023/03/07 01:08:16;;;;;;;2.30;2.20;;;15.20;57.40;16.20;99145.00;;;;5028086;28;20253;-44
2023/03/07 01:10:42;;;;;;;2.50;2.30;;;15.20;57.30;16.20;99154.00;;;;5027897;28;20195;-44
2023/03/07 01:13:09;;;;;;;2.23;2.13;;;15.20;57.30;16.20;99147.00;;;;5027975;28;20226;-47
2023/03/07 01:15:35;;;;;;;3.10;2.40;;;15.20;57.30;16.20;99146.00;;;;5028267;28;20182;-44
2023/03/07 01:18:01;;;;;;;2.40;2.20;;;15.10;57.30;16.20;99147.00;;;;5027892;28;20173;-44
2023/03/07 01:20:31;;;;;;;2.50;2.30;;;15.10;57.60;16.10;99128.00;;;;5027829;28;20178;-44
2023/03/07 01:22:57;;;;;;;2.40;2.20;;;15.10;57.60;16.20;99145.00;;;;5027738;28;20199;-45
2023/03/07 01:25:23;;;;;;;2.40;2.20;;;15.00;57.60;16.10;99142.00;;;;5027900;28;20265;-44
2023/03/07 01:27:50;;;;;;;2.50;2.30;;;15.00;57.60;16.10;99138.00;;;;5027698;28;20195;-44
2023/03/07 01:30:16;;;;;;;2.50;2.30;;;15.00;57.50;16.10;99138.00;;;;5027956;28;20199;-44
2023/03/07 01:32:42;;;;;;;2.73;2.53;;;15.00;57.50;16.10;99131.00;;;;5027811;28;20167;-49
2023/03/07 01:35:08;;;;;;;2.37;2.17;;;15.00;57.40;16.10;99131.00;;;;5028078;28;20220;-44
2023/03/07 01:37:34;;;;;;;2.23;2.13;;;15.00;57.50;16.00;99138.00;;;;5027672;28;20195;-45
2023/03/07 01:39:59;;;;;;;2.23;2.13;;;14.90;57.50;16.10;99127.00;;;;5027715;28;20182;-49
2023/03/07 01:42:28;;;;;;;2.50;2.30;;;15.00;57.60;16.00;99127.00;;;;5027553;28;20594;-45
2023/03/07 01:45:33;;;;;;;2.10;2.00;;;14.90;57.50;16.00;99128.00;;;;5026650;28;20194;-45
2023/03/07 01:47:58;;;;;;;2.50;2.30;;;14.90;57.50;16.00;99127.00;;;;5027417;28;20261;-44
2023/03/07 01:50:24;;;;;;;2.20;2.10;;;14.90;57.50;16.00;99114.00;;;;5027391;28;20286;-45
2023/03/07 01:52:56;;;;;;;2.70;2.20;;;14.90;57.50;16.00;99123.00;;;;5009669;28;20254;-45
2023/03/07 01:55:30;;;;;;;2.50;2.30;;;14.90;57.50;15.90;99120.00;;;;5026343;28;20791;-45
2023/03/07 01:57:55;;;;;;;2.33;2.13;;;14.80;57.50;15.90;99129.00;;;;5026441;28;20185;-45
2023/03/07 02:00:25;;;;;;;2.10;2.00;;;14.90;57.50;15.90;99118.00;;;;5026584;28;20261;-44
2023/03/07 02:03:14;;;;;;;2.50;2.30;;;14.80;57.40;15.90;99107.00;;;;5026027;28;20185;-48
2023/03/07 02:05:56;;;;;;;2.10;2.00;;;14.80;57.40;15.90;99100.00;;;;5026708;28;20179;-44
2023/03/07 02:08:23;;;;;;;2.10;2.00;;;14.80;57.40;15.90;99098.00;;;;5030197;28;20186;-44
2023/03/07 02:10:49;;;;;;;2.37;2.17;;;14.80;57.40;15.90;99093.00;;;;5029603;28;20191;-44
2023/03/07 02:13:15;;;;;;;2.40;2.20;;;14.80;57.40;15.90;99090.00;;;;5031166;28;20673;-46
2023/03/07 02:15:40;;;;;;;2.20;2.10;;;14.80;57.60;15.90;99098.00;;;;5029879;28;20174;-46
2023/03/07 02:18:06;;;;;;;2.10;2.00;;;14.80;57.50;15.80;99083.00;;;;5031276;28;20175;-45
2023/03/07 02:20:52;;;;;;;2.10;2.00;;;14.80;57.50;15.80;99073.00;;;;5029831;28;20175;-45
2023/03/07 02:23:52;;;;;;;2.00;1.90;;;14.80;57.70;15.80;99071.00;;;;5009709;28;20651;-45
2023/03/07 02:26:29;;;;;;;3.30;1.90;;;14.70;58.20;15.80;99086.00;;;;5014919;28;20194;-45
2023/03/07 02:28:59;;;;;;;2.13;2.00;;;14.70;58.20;15.80;99066.00;;;;5030707;28;20210;-45
2023/03/07 02:31:25;;;;;;;2.37;1.97;;;14.70;58.10;15.80;99083.00;;;;5029113;28;20195;-45
2023/03/07 02:33:50;;;;;;;2.00;1.90;;;14.70;57.90;15.80;99073.00;;;;5030994;28;20190;-45
2023/03/07 02:36:22;;;;;;;1.97;1.87;;;14.70;58.00;15.80;99071.00;;;;5030641;28;20217;-44
2023/03/07 02:38:48;;;;;;;2.20;2.10;;;14.70;58.00;15.70;99071.00;;;;5029671;28;20171;-44
2023/03/07 02:41:14;;;;;;;2.13;2.03;;;14.80;58.10;15.70;99070.00;;;;5030911;28;20243;-45
2023/03/07 02:43:40;;;;;;;2.20;2.00;;;14.80;58.00;15.70;99062.00;;;;5029951;28;20254;-45
2023/03/07 02:46:06;;;;;;;2.33;2.13;;;14.80;57.90;15.70;99057.00;;;;5030722;28;20290;-45
2023/03/07 02:48:31;;;;;;;1.80;1.70;;;14.70;58.00;15.70;99059.00;;;;5030710;28;20181;-45
2023/03/07 02:50:57;;;;;;;2.80;1.97;;;14.70;58.20;15.70;99056.00;;;;5030228;28;20207;-44
2023/03/07 02:53:23;;;;;;;2.63;1.93;;;14.70;58.30;15.70;99057.00;;;;5030438;28;20186;-44
2023/03/07 02:55:48;;;;;;;1.90;1.80;;;14.70;58.30;15.70;99055.00;;;;5030283;28;20194;-44
2023/03/07 02:58:14;;;;;;;2.03;1.80;;;14.70;58.30;15.70;99055.00;;;;5030393;28;20175;-44
2023/03/07 03:00:40;;;;;;;2.10;2.00;;;14.60;58.20;15.70;99041.00;;;;5030118;28;20179;-45
2023/03/07 03:03:06;;;;;;;2.10;2.00;;;14.60;58.30;15.70;99041.00;;;;5030451;28;20179;-44
2023/03/07 03:05:31;;;;;;;1.80;1.70;;;14.60;58.30;15.60;99044.00;;;;5030680;28;20219;-45
2023/03/07 03:07:57;;;;;;;1.97;1.87;;;14.60;58.30;15.60;99036.00;;;;5030355;28;20179;-44
2023/03/07 03:10:23;;;;;;;2.10;1.90;;;14.60;58.30;15.60;99050.00;;;;5030028;28;20195;-45
2023/03/07 03:12:48;;;;;;;3.23;1.70;;;14.60;58.40;15.60;99051.00;;;;5030138;28;20186;-44
2023/03/07 03:15:14;;;;;;;2.00;1.90;;;14.60;58.30;15.60;99040.00;;;;5030029;28;20190;-44
2023/03/07 03:17:40;;;;;;;2.10;2.00;;;14.50;58.30;15.60;99048.00;;;;5029719;28;20194;-44
2023/03/07 03:20:10;;;;;;;2.10;1.90;;;14.50;58.20;15.60;99034.00;;;;5029614;28;20229;-44
2023/03/07 03:22:37;;;;;;;2.10;1.90;;;14.60;58.20;15.60;99041.00;;;;5028420;28;20186;-46
2023/03/07 03:25:05;;;;;;;2.20;2.00;;;14.50;58.10;15.30;99042.00;;;;5029837;28;20674;-45
2023/03/07 03:27:31;;;;;;;2.20;2.00;;;14.50;58.10;15.60;99041.00;;;;5030103;28;20286;-44
2023/03/07 03:29:57;;;;;;;1.90;1.80;;;14.50;58.70;15.60;99035.00;;;;5028079;28;20195;-44
2023/03/07 03:32:23;;;;;;;2.00;1.90;;;14.50;58.10;15.50;99038.00;;;;5029658;28;20264;-44
2023/03/07 03:34:49;;;;;;;1.73;1.63;;;14.50;58.20;15.50;99038.00;;;;5029541;28;20171;-44
2023/03/07 03:37:14;;;;;;;1.70;1.60;;;14.50;58.30;15.50;99026.00;;;;5029379;28;20194;-44
2023/03/07 03:39:40;;;;;;;1.80;1.70;;;14.40;58.30;15.50;99033.00;;;;5029624;28;20737;-45
2023/03/07 03:42:06;;;;;;;1.93;1.83;;;14.40;58.40;15.50;99024.00;;;;5029368;28;20258;-45
2023/03/07 03:44:32;;;;;;;2.00;1.90;;;14.40;58.30;15.50;99026.00;;;;5021431;28;20992;-44
2023/03/07 03:46:58;;;;;;;2.03;1.83;;;14.50;58.30;15.50;99031.00;;;;5029492;28;20206;-45
2023/03/07 03:49:23;;;;;;;1.87;1.77;;;14.40;58.30;15.50;99033.00;;;;5030130;28;20183;-44
2023/03/07 03:51:49;;;;;;;1.90;1.80;;;14.40;58.40;15.50;99024.00;;;;5029558;28;20226;-44
2023/03/07 03:54:15;;;;;;;1.83;1.73;;;14.40;58.30;15.50;99022.00;;;;5029877;28;20179;-44
2023/03/07 03:56:40;;;;;;;1.90;1.80;;;14.40;58.40;15.40;99021.00;;;;5029539;28;20198;-44
2023/03/07 03:59:06;;;;;;;2.10;1.90;;;14.30;58.40;15.40;98951.00;;;;5029381;28;20175;-45
2023/03/07 04:01:32;;;;;;;2.00;1.90;;;14.30;58.40;15.40;98993.00;;;;5029409;28;20205;-44
2023/03/07 04:03:58;;;;;;;1.90;1.80;;;14.40;58.40;15.40;99015.00;;;;5028140;28;20210;-44
2023/03/07 04:06:29;;;;;;;2.00;1.90;;;14.40;58.40;15.40;99016.00;;;;5029454;28;20227;-43
2023/03/07 04:08:55;;;;;;;1.90;1.80;;;14.30;58.20;15.40;99017.00;;;;5029157;28;20601;-44
2023/03/07 04:11:21;;;;;;;2.00;1.90;;;14.30;58.10;15.40;99008.00;;;;5029200;28;20223;-44
2023/03/07 04:13:47;;;;;;;2.37;1.80;;;14.40;58.20;15.40;99005.00;;;;5029374;28;20181;-44
2023/03/07 04:16:12;;;;;;;1.80;1.70;;;14.40;58.00;15.40;98995.00;;;;5029365;28;20569;-44
2023/03/07 04:18:38;;;;;;;1.80;1.70;;;14.40;58.30;15.40;98996.00;;;;5029220;28;20179;-44
2023/03/07 04:21:05;;;;;;;1.80;1.70;;;14.40;58.30;15.40;98991.00;;;;5030208;28;20526;-44
2023/03/07 04:23:31;;;;;;;1.80;1.70;;;14.30;58.10;15.30;98994.00;;;;5022735;28;20202;-43
2023/03/07 04:25:58;;;;;;;1.90;1.80;;;14.30;58.20;15.30;98986.00;;;;5027714;28;20206;-44
2023/03/07 04:28:26;;;;;;;2.83;2.07;;;14.30;58.20;15.30;98983.00;;;;5028478;28;20183;-43
2023/03/07 04:30:52;;;;;;;3.13;1.80;;;14.30;58.50;15.30;98970.00;;;;5028477;28;20591;-50
2023/03/07 04:33:18;;;;;;;2.10;1.80;;;14.30;58.90;15.30;98970.00;;;;5027621;28;20181;-44
2023/03/07 04:35:44;;;;;;;1.70;1.60;;;14.30;58.50;15.30;98983.00;;;;5028808;28;20178;-45
2023/03/07 04:38:11;;;;;;;6.90;1.90;;;14.30;58.40;15.30;98967.00;;;;5028580;28;20177;-43
2023/03/07 04:40:36;;;;;;;2.00;1.53;;;14.30;58.40;15.30;98963.00;;;;5027266;28;20233;-44
2023/03/07 04:43:04;;;;;;;1.90;1.80;;;14.30;58.40;15.30;98960.00;;;;5028679;28;20550;-43
2023/03/07 04:45:33;;;;;;;4.20;2.13;;;14.30;59.00;15.30;98956.00;;;;5028740;28;20306;-44
2023/03/07 04:47:59;;;;;;;2.00;1.90;;;14.30;58.30;15.30;98956.00;;;;5028212;28;20179;-44
2023/03/07 04:50:24;;;;;;;3.17;2.10;;;14.30;58.10;15.30;98956.00;;;;5029268;28;20784;-44
2023/03/07 04:52:50;;;;;;;2.00;1.90;;;14.30;58.10;15.30;98956.00;;;;5030083;28;20211;-44
2023/03/07 04:55:16;;;;;;;2.57;1.90;;;14.30;58.00;15.30;98948.00;;;;5033048;28;20175;-45
2023/03/07 04:57:42;;;;;;;2.23;2.03;;;14.30;57.90;15.20;98942.00;;;;5032986;28;20203;-44
2023/03/07 05:00:09;;;;;;;2.83;2.00;;;14.30;57.80;15.30;98946.00;;;;5033243;28;20185;-44
2023/03/07 05:02:37;;;;;;;3.63;2.37;;;14.30;57.80;15.20;98946.00;;;;5042412;28;20250;-44
2023/03/07 05:05:03;;;;;;;2.30;2.10;;;14.30;57.80;15.20;98946.00;;;;5042970;28;20547;-44
2023/03/07 05:07:29;;;;;;;2.30;2.10;;;14.30;57.70;15.20;98937.00;;;;5036772;28;20198;-44
2023/03/07 05:09:55;;;;;;;2.67;2.20;;;14.30;57.70;15.20;98948.00;;;;5030364;28;20197;-44
2023/03/07 05:12:22;;;;;;;2.30;2.10;;;14.20;57.70;15.20;98949.00;;;;5030284;28;20175;-43
2023/03/07 05:14:47;;;;;;;2.63;1.90;;;14.30;57.90;15.20;98937.00;;;;5030280;28;20193;-44
2023/03/07 05:17:14;;;;;;;2.30;2.10;;;14.20;57.80;15.20;98933.00;;;;5029372;28;20705;-44
2023/03/07 05:19:40;;;;;;;2.50;2.30;;;14.20;57.90;15.20;98938.00;;;;5029348;28;20242;-44
2023/03/07 05:22:06;;;;;;;2.30;2.10;;;14.20;57.90;15.20;98943.00;;;;5028667;28;20175;-44
2023/03/07 05:24:32;;;;;;;2.03;1.90;;;14.20;57.90;15.20;98935.00;;;;5029057;28;20179;-45
2023/03/07 05:26:58;;;;;;;3.27;2.10;;;14.20;58.00;15.10;98921.00;;;;5020519;28;20226;-48
2023/03/07 05:29:24;;;;;;;2.40;1.90;;;14.20;58.10;15.20;98933.00;;;;5028780;28;20218;-44
2023/03/07 05:31:49;;;;;;;6.93;2.20;;;14.10;58.10;15.20;98929.00;;;;5028762;28;20195;-43
2023/03/07 05:34:15;;;;;;;2.80;2.37;;;14.10;58.50;15.10;98921.00;;;;5029262;28;20183;-44
2023/03/07 05:36:42;;;;;;;5.40;2.20;;;14.10;58.80;15.10;98927.00;;;;5028719;28;20198;-45
2023/03/07 05:39:08;;;;;;;5.13;2.43;;;14.10;58.90;15.10;98928.00;;;;5028657;28;20182;-45
2023/03/07 05:41:34;;;;;;;7.70;2.57;;;14.10;59.00;15.10;98928.00;;;;5032272;28;20175;-45
2023/03/07 05:44:00;;;;;;;4.50;2.67;;;14.10;58.90;15.10;98916.00;;;;5033127;28;20229;-45
2023/03/07 05:46:25;;;;;;;4.70;2.40;;;14.00;58.80;15.10;98925.00;;;;5028704;28;20290;-45
2023/03/07 05:48:51;;;;;;;3.80;2.73;;;14.10;58.80;15.10;98918.00;;;;5022501;28;20615;-45
2023/03/07 05:51:17;;;;;;;2.73;2.30;;;14.00;58.70;15.10;98917.00;;;;5031978;28;20247;-45
2023/03/07 05:53:43;;;;;;;3.67;2.43;;;14.00;58.70;15.10;98919.00;;;;5032104;28;20707;-44
2023/03/07 05:56:08;;;;;;;2.90;2.20;;;14.00;58.70;15.10;98927.00;;;;5032240;28;20788;-45
2023/03/07 05:58:34;;;;;;;4.87;2.50;;;14.00;58.60;15.00;98923.00;;;;5032168;28;20175;-45
2023/03/07 06:01:03;;;;;;;4.67;1.90;;;14.00;58.70;14.80;98872.00;;;;5031627;28;20204;-46
2023/03/07 06:03:29;;;;;;;6.60;2.30;;;14.00;58.70;15.00;98917.00;;;;5032246;28;20240;-44
2023/03/07 06:05:55;;;;;;;6.20;2.40;;;14.00;58.70;15.00;98923.00;;;;5032423;28;20684;-44
2023/03/07 06:08:21;;;;;;;5.27;2.37;;;14.00;58.60;15.00;98916.00;;;;5031754;28;20194;-45
2023/03/07 06:10:51;;;;;;;3.23;2.40;;;14.00;58.60;15.00;98911.00;;;;5031563;28;20230;-44
2023/03/07 06:13:21;;;;;;;3.67;2.40;;;14.00;58.60;15.00;98918.00;;;;5031769;28;20313;-44
2023/03/07 06:15:51;;;;;;;4.80;2.30;;;14.00;58.60;15.00;98915.00;;;;5031786;28;20282;-44
2023/03/07 06:18:17;;;;;;;3.63;2.30;;;13.90;58.50;15.00;98914.00;;;;5031154;28;20200;-44
2023/03/07 06:20:43;;;;;;;2.20;2.00;;;14.00;58.60;15.00;98916.00;;;;5031592;28;20206;-45
2023/03/07 06:23:08;;;;;;;2.23;2.03;;;14.00;58.60;15.00;98914.00;;;;5031551;28;20665;-45
2023/03/07 06:25:34;;;;;;;3.63;2.30;;;14.00;58.50;14.90;98911.00;;;;5031628;28;20324;-44
2023/03/07 06:28:00;;;;;;;3.57;2.40;;;13.90;58.40;14.90;98907.00;;;;5030757;28;20249;-44
2023/03/07 06:30:27;;;;;;;3.03;2.17;;;13.90;58.40;14.90;98906.00;;;;5031728;28;20244;-44
2023/03/07 06:32:53;;;;;;;4.63;2.30;;;13.90;58.30;14.90;98913.00;;;;5033167;28;20183;-44
2023/03/07 06:35:19;;;;;;;4.27;2.17;;;14.00;58.40;14.90;98914.00;;;;5031593;28;20179;-44
2023/03/07 06:37:45;;;;;;;2.83;2.07;;;13.90;58.30;14.90;98909.00;;;;5031519;28;20198;-44
2023/03/07 06:40:11;;;;;;;6.07;2.17;;;13.90;58.30;14.90;98911.00;;;;5031491;28;20572;-44
2023/03/07 06:42:37;;;;;;;2.50;2.17;;;13.90;58.50;14.90;98900.00;;;;5031508;28;20187;-44
2023/03/07 06:45:03;;;;;;;3.87;2.30;;;13.90;58.60;14.90;98904.00;;;;5031618;28;20681;-44
2023/03/07 06:47:29;;;;;;;2.57;2.20;;;13.90;58.60;14.90;98900.00;;;;5031667;28;20202;-44
2023/03/07 06:49:54;;;;;;;2.43;2.23;;;13.80;58.50;14.90;98904.00;;;;5030948;28;20183;-44
2023/03/07 06:52:21;;;;;;;2.67;2.00;;;13.90;58.50;14.90;98904.00;;;;5030439;28;20606;-44
2023/03/07 06:54:47;;;;;;;3.10;2.20;;;13.90;58.40;14.90;98902.00;;;;5030996;28;20203;-44
2023/03/07 06:57:12;;;;;;;4.17;2.40;;;13.90;58.30;14.90;98900.00;;;;5031166;28;20233;-46
2023/03/07 06:59:38;;;;;;;2.90;2.27;;;13.90;58.30;14.80;98903.00;;;;5031144;28;20241;-45
2023/03/07 07:02:04;;;;;;;2.47;2.10;;;13.90;58.30;14.80;98904.00;;;;5030454;28;20608;-44
2023/03/07 07:04:30;;;;;;;2.73;2.00;;;13.80;58.30;14.80;98901.00;;;;5031200;28;20183;-44
2023/03/07 07:06:56;;;;;;;4.30;2.10;;;13.90;58.30;14.80;98893.00;;;;5031085;28;20207;-44
2023/03/07 07:09:22;;;;;;;2.57;2.37;;;13.80;58.30;14.80;98898.00;;;;5030751;28;20197;-44
2023/03/07 07:11:48;;;;;;;2.57;2.00;;;13.90;58.40;14.80;98895.00;;;;5030544;28;20207;-43
2023/03/07 07:14:13;;;;;;;2.53;1.93;;;13.80;58.20;14.80;98887.00;;;;5030830;28;20226;-46
2023/03/07 07:16:39;;;;;;;2.47;2.20;;;13.80;58.20;14.80;98887.00;;;;5030717;28;20186;-44
2023/03/07 07:19:05;;;;;;;2.40;2.20;;;13.80;58.20;14.80;98886.00;;;;5030264;28;20174;-44
2023/03/07 07:21:30;;;;;;;2.17;2.00;;;13.80;58.20;14.80;98888.00;;;;5031190;28;20187;-44
2023/03/07 07:23:57;;;;;;;3.27;2.37;;;13.80;58.20;14.80;98892.00;;;;5030435;28;20194;-46
2023/03/07 07:26:23;;;;;;;2.87;2.10;;;13.80;58.10;14.80;98887.00;;;;5030429;28;20199;-45
2023/03/07 07:28:49;;;;;;;2.40;2.20;;;13.80;58.20;14.80;98889.00;;;;5029981;28;20179;-43
2023/03/07 07:31:15;;;;;;;2.30;2.10;;;13.90;58.20;14.80;98879.00;;;;5029804;28;20191;-45
2023/03/07 07:33:41;;;;;;;2.10;1.90;;;13.80;58.10;14.80;98894.00;;;;5030302;28;20183;-44
2023/03/07 07:36:07;;;;;;;3.27;2.20;;;13.80;58.10;14.80;98886.00;;;;5030144;28;20194;-44
2023/03/07 07:38:33;;;;;;;2.30;2.10;;;13.80;58.10;14.70;98871.00;;;;5030005;28;20183;-44
2023/03/07 07:41:01;;;;;;;3.07;2.00;;;13.70;58.00;14.80;98884.00;;;;5029871;28;20707;-44
2023/03/07 07:43:26;;;;;;;2.23;2.03;;;13.80;58.10;14.70;98875.00;;;;5029800;28;20658;-44
2023/03/07 07:45:52;;;;;;;3.20;2.40;;;13.80;58.10;14.70;98871.00;;;;5029772;28;20285;-45
2023/03/07 07:48:18;;;;;;;2.40;2.20;;;13.70;58.00;14.70;98881.00;;;;5029892;28;20209;-44
2023/03/07 07:50:43;;;;;;;2.97;2.20;;;13.80;58.20;14.70;98885.00;;;;5029713;28;20715;-44
2023/03/07 07:53:09;;;;;;;2.30;2.10;;;13.70;58.10;14.70;98889.00;;;;5030138;28;20175;-44
2023/03/07 07:55:35;;;;;;;2.27;2.07;;;13.70;58.10;14.70;98877.00;;;;5030116;28;20174;-44
2023/03/07 07:58:01;;;;;;;2.30;2.10;;;13.70;58.10;14.70;98885.00;;;;5029855;28;20174;-44
2023/03/07 08:00:26;;;;;;;2.07;1.87;;;13.70;58.10;14.70;98888.00;;;;5029945;28;20183;-44
2023/03/07 08:02:52;;;;;;;2.33;2.13;;;13.70;58.20;14.70;98883.00;;;;5029539;28;20202;-45
2023/03/07 08:05:19;;;;;;;2.10;2.00;;;13.70;58.60;14.70;98881.00;;;;5029885;28;20186;-44
2023/03/07 08:07:45;;;;;;;2.30;2.10;;;13.70;58.40;14.70;98882.00;;;;5030166;28;20715;-44
2023/03/07 08:10:14;;;;;;;2.30;2.10;;;13.60;58.30;14.70;98894.00;;;;5040657;28;20187;-44
2023/03/07 08:12:44;;;;;;;4.17;2.10;;;13.70;58.50;14.70;98884.00;;;;5042498;28;20175;-43
2023/03/07 08:15:11;;;;;;;2.20;2.10;;;13.60;58.50;14.70;98883.00;;;;5035327;28;20179;-44
2023/03/07 08:17:36;;;;;;;2.17;2.07;;;13.70;58.60;14.70;98895.00;;;;5030099;28;20210;-44
2023/03/07 08:20:08;;;;;;;2.10;2.00;;;13.70;58.60;14.70;98885.00;;;;5030424;28;20190;-44
2023/03/07 08:22:37;;;;;;;2.40;2.20;;;13.80;58.50;14.70;98891.00;;;;5030253;28;20189;-43
2023/03/07 08:25:20;;;;;;;2.07;1.90;;;13.90;58.60;14.80;98877.00;;;;5066967;28;20966;-45
2023/03/07 08:27:47;;;;;;;2.47;2.27;;;13.90;58.50;14.80;98881.00;;;;5027424;28;20253;-46
2023/03/07 08:30:13;;;;;;;2.33;2.00;;;14.00;58.50;14.80;98883.00;;;;5029725;28;20760;-47
2023/03/07 08:32:39;;;;;;;2.27;2.07;;;14.00;58.30;14.90;98881.00;;;;5028446;28;20175;-44
2023/03/07 08:35:06;;;;;;;2.10;1.90;;;14.10;59.00;15.00;98886.00;;;;5026626;28;20221;-43
2023/03/07 08:37:31;;;;;;;8.57;2.33;;;14.20;58.50;15.00;98875.00;;;;5026296;28;20735;-44
2023/03/07 08:39:57;;;;;;;5.13;2.03;;;14.30;58.80;15.10;98877.00;;;;5026052;28;20171;-44
2023/03/07 08:42:23;;;;;;;2.47;1.80;;;14.40;59.00;15.20;98879.00;;;;5026367;28;20180;-44
2023/03/07 08:44:48;;;;;;;3.30;2.17;;;14.50;59.00;15.30;98887.00;;;;5026520;28;20195;-44
2023/03/07 08:47:14;;;;;;;3.00;2.00;;;14.60;59.10;15.40;98879.00;;;;5023352;28;20661;-45
2023/03/07 08:49:40;;;;;;;3.60;1.97;;;14.70;59.10;15.50;98875.00;;;;5025608;28;20175;-43
2023/03/07 08:52:05;;;;;;;3.23;1.80;;;14.80;59.30;15.60;98875.00;;;;5025856;28;20171;-44
2023/03/07 08:54:31;;;;;;;2.07;1.87;;;14.90;59.30;15.70;98868.00;;;;5025993;28;20183;-45
2023/03/07 08:56:58;;;;;;;3.17;1.90;;;15.00;59.20;15.90;98869.00;;;;5025503;28;20596;-44
2023/03/07 08:59:24;;;;;;;2.40;1.87;;;15.10;59.10;16.00;98867.00;;;;5025493;28;20186;-43
2023/03/07 09:01:49;;;;;;;2.77;1.87;;;15.20;59.00;16.00;98873.00;;;;5024787;28;20182;-44
2023/03/07 09:04:15;;;;;;;2.50;1.90;;;15.30;58.90;16.10;98852.00;;;;5026285;28;20190;-44
2023/03/07 09:06:41;;;;;;;2.23;1.60;;;15.40;58.90;16.20;98860.00;;;;5028482;28;20202;-43
2023/03/07 09:09:06;;;;;;;2.30;1.90;;;15.40;58.80;16.30;98861.00;;;;5029847;28;20174;-45
2023/03/07 09:11:32;;;;;;;2.00;1.90;;;15.50;58.70;16.40;98873.00;;;;5030140;28;20369;-44
2023/03/07 09:13:58;;;;;;;2.60;1.87;;;15.60;58.90;16.40;98863.00;;;;5026959;28;20186;-44
2023/03/07 09:16:24;;;;;;;2.77;1.80;;;15.70;59.10;16.50;98868.00;;;;5024394;28;20191;-44
2023/03/07 09:18:50;;;;;;;3.17;1.87;;;15.70;59.00;16.60;98872.00;;;;5025038;28;20852;-44
2023/03/07 09:21:15;;;;;;;3.37;1.80;;;15.80;58.90;16.70;98863.00;;;;5025429;28;20557;-44
2023/03/07 09:23:44;;;;;;;2.37;1.90;;;15.90;59.00;16.80;98876.00;;;;5025129;28;20237;-43
2023/03/07 09:26:10;;;;;;;6.07;1.90;;;16.00;59.30;16.80;98872.00;;;;5024986;28;20230;-43
2023/03/07 09:28:36;;;;;;;3.50;1.80;;;16.10;59.40;16.90;98873.00;;;;5025323;28;20167;-44
2023/03/07 09:31:09;;;;;;;2.40;1.70;;;16.20;59.50;17.00;98872.00;;;;5023396;28;20962;-43
2023/03/07 09:33:35;;;;;;;4.50;1.80;;;16.20;59.50;17.10;98881.00;;;;5025206;28;20563;-44
2023/03/07 09:36:08;;;;;;;5.23;2.10;;;16.30;59.50;17.10;98876.00;;;;5014663;28;20205;-45
2023/03/07 09:38:34;;;;;;;3.87;2.10;;;16.40;59.60;17.20;98872.00;;;;5010255;28;20215;-43
2023/03/07 09:41:32;;;;;;;4.23;1.83;;;16.40;59.10;17.30;98877.00;;;;5011684;28;20652;-44
2023/03/07 09:44:29;;;;;;;2.30;1.83;;;16.50;58.90;17.30;98872.00;;;;5010233;28;20557;-44
2023/03/07 09:47:09;;;;;;;2.17;1.60;;;16.50;58.80;17.30;98871.00;;;;5010241;28;20194;-43
2023/03/07 09:49:49;;;;;;;2.00;1.80;;;16.60;58.70;17.30;98868.00;;;;5010384;28;20316;-44
2023/03/07 09:52:23;;;;;;;2.47;2.00;;;16.60;58.50;17.40;98873.00;;;;5013569;28;20226;-44
2023/03/07 09:55:00;;;;;;;2.63;2.00;;;16.70;58.50;17.40;98852.00;;;;5011921;28;20325;-44
2023/03/07 09:57:49;;;;;;;4.40;1.80;;;16.70;58.30;17.40;98864.00;;;;5009944;28;20745;-44
2023/03/07 10:00:33;;;;;;;2.47;1.90;;;16.70;58.30;17.50;98860.00;;;;5011255;28;20184;-43
2023/03/07 10:03:46;;;;;;;4.23;1.90;;;16.80;58.30;17.50;98859.00;;;;5009814;28;20178;-43
2023/03/07 10:06:46;;;;;;;3.00;1.83;;;16.70;58.30;17.50;98858.00;;;;5009673;28;20244;-44
2023/03/07 10:09:23;;;;;;;2.70;1.93;;;16.80;58.30;17.50;98850.00;;;;5009275;28;20197;-44
2023/03/07 10:11:58;;;;;;;1.67;1.57;;;16.80;58.30;17.50;98856.00;;;;5012301;28;20204;-43
2023/03/07 10:14:32;;;;;;;2.07;1.77;;;16.80;58.30;17.50;98857.00;;;;5012701;28;20680;-44
2023/03/07 10:17:51;;;;;;;2.90;1.83;;;16.80;58.30;17.60;98855.00;;;;5011789;28;20193;-44
2023/03/07 10:20:57;;;;;;;5.23;1.90;;;16.90;58.40;17.60;98845.00;;;;5011300;28;20181;-44
2023/03/07 10:23:50;;;;;;;4.53;1.97;;;16.90;58.30;17.60;98861.00;;;;5010017;28;20218;-43
2023/03/07 10:26:41;;;;;;;2.53;1.90;;;16.80;58.30;17.60;98861.00;;;;5010663;28;20200;-44
2023/03/07 10:29:16;;;;;;;3.63;1.60;;;16.80;58.30;17.60;98869.00;;;;5009186;28;20193;-44
2023/03/07 10:31:47;;;;;;;2.20;2.00;;;16.80;58.30;17.60;98861.00;;;;5010868;28;20196;-43
2023/03/07 10:34:28;;;;;;;2.57;1.70;;;16.80;58.30;17.60;98866.00;;;;5010699;28;20182;-44
2023/03/07 10:37:19;;;;;;;2.77;1.80;;;16.80;58.30;17.60;98862.00;;;;5009348;28;20234;-45
2023/03/07 10:39:55;;;;;;;2.20;1.70;;;16.80;58.40;17.60;98867.00;;;;5009381;28;20679;-44
2023/03/07 10:42:23;;;;;;;4.13;2.00;;;16.70;58.20;17.60;98880.00;;;;5010665;28;20192;-44
2023/03/07 10:44:50;;;;;;;3.17;1.90;;;16.80;58.30;17.60;98860.00;;;;5010210;28;20209;-44
2023/03/07 10:47:21;;;;;;;2.87;1.97;;;16.70;58.30;17.50;98868.00;;;;5009505;28;20205;-45
2023/03/07 10:49:49;;;;;;;2.07;1.80;;;16.70;58.70;17.60;98870.00;;;;5010229;28;20189;-44
2023/03/07 10:52:46;;;;;;;2.50;1.87;;;16.80;59.00;17.60;98894.00;;;;5009197;28;20175;-44
2023/03/07 10:55:40;;;;;;;2.30;1.80;;;16.80;58.70;17.60;98892.00;;;;5010295;28;20208;-44
2023/03/07 10:58:13;;;;;;;2.40;1.70;;;16.80;58.70;17.60;98886.00;;;;5009899;28;20661;-44
2023/03/07 11:00:39;;;;;;;2.37;1.60;;;16.80;58.80;17.60;98884.00;;;;5009791;28;20179;-44